Briefing drone pour Coursan

Rechercher une autre localisation

Conditions de vol :


Nous sommes le : Mercredi 23 juin 2021
Il est 01:52 UTC (03:52 LT)

Lever de soleil : 03:42 UTC (05:42 LT)
Coucher de soleil : 19:57 UTC (21:57 LT)

Météo

L'essentiel des conditions de vol

VIGILANCE MÉTÉO FRANCE - Aude (11)
Vigilance Jaune : Orages
CARTE TEMSI
CARTES DES FRONTS
METAR de LFMU
LFMU 230130Z AUTO 32004KT CAVOK 17/12 Q1016

Date d'émission: 23/06/2021
Heure d'émission: 01:30 UTC
Vent: 320° pour 4 KT (7 km/h)
Visibilité horizontale: > 10 km
Plafond : Plafond et visibilité OK (CAVOK)
Température: 17 °C
Point de rosée: 12 °C
Humidité: 72%
Pression (QNH): 1016 hPa
TAF de LFMU
LFMU 222035Z 2220/2315 CNL

Conditions prévues :

Heure d'émission : Bulletin éffectué le 22 à 20:00 UTC
Prévision : Valide du 22 a 20:00 UTC au 23 a 15:00 UTC
Nuages : à 0ft (0 m)
WEBCAM POUR COURSAN

Réglementation

Voler en sécurité

CARTES AERONAUTIQUE 1/500.000
CARTES VAC (LFMU)
SUP AIP




Chargement des AIP...
NOTAM (COURSAN + Terrain à proximité / FIR )




Chargement des NOTAMS...
CONTACT PREFECTURE 11


Avertissement : Les données mises à disposition sont indicatives. Oxygène Drone ne pourra être tenu responsable de dégâts causés aux biens et aux personnes.